createdAt,value
2018-11-26T00:01:04.196Z,43.20
2018-11-26T00:03:31.779Z,47.50
2018-11-26T00:05:59.275Z,41.40
2018-11-26T00:08:26.787Z,41.20
2018-11-26T00:11:29.740Z,40.50
2018-11-26T00:13:57.321Z,42.17
2018-11-26T00:16:24.794Z,39.03
2018-11-26T00:18:52.196Z,41.40
2018-11-26T00:21:19.671Z,38.57
2018-11-26T00:23:47.156Z,37.40
2018-11-26T00:26:14.812Z,37.63
2018-11-26T00:28:42.270Z,40.90
2018-11-26T00:31:09.727Z,39.53
2018-11-26T00:33:37.185Z,41.33
2018-11-26T00:36:05.069Z,35.10
2018-11-26T00:38:32.555Z,41.20
2018-11-26T00:41:00.026Z,38.30
2018-11-26T00:43:27.523Z,41.33
2018-11-26T00:45:55.010Z,42.10
2018-11-26T00:48:22.429Z,39.90
2018-11-26T00:50:49.836Z,38.73
2018-11-26T00:53:17.344Z,37.37
2018-11-26T00:55:44.867Z,41.30
2018-11-26T00:58:12.251Z,43.80
2018-11-26T01:00:39.759Z,38.50
2018-11-26T01:03:07.331Z,40.80
2018-11-26T01:05:36.871Z,42.07
2018-11-26T01:08:04.324Z,40.37
2018-11-26T01:10:31.840Z,45.03
2018-11-26T01:12:59.341Z,41.23
2018-11-26T01:15:26.791Z,41.80
2018-11-26T01:17:54.363Z,41.37
2018-11-26T01:20:21.852Z,38.50
2018-11-26T01:22:49.361Z,38.40
2018-11-26T01:25:16.800Z,38.00
2018-11-26T01:27:44.240Z,41.47
2018-11-26T01:30:11.791Z,34.70
2018-11-26T01:32:39.326Z,37.80
2018-11-26T01:35:07.813Z,36.73
2018-11-26T01:37:35.268Z,36.60
2018-11-26T01:40:03.824Z,40.40
2018-11-26T01:42:31.225Z,37.03
2018-11-26T01:44:58.736Z,35.07
2018-11-26T01:47:26.169Z,36.33
2018-11-26T01:49:53.615Z,36.50
2018-11-26T01:52:21.026Z,41.23
2018-11-26T01:54:48.494Z,35.63
2018-11-26T01:57:15.932Z,40.93
2018-11-26T01:59:43.317Z,32.17
2018-11-26T02:02:10.776Z,36.37
2018-11-26T02:04:38.219Z,31.90
2018-11-26T02:07:05.657Z,35.80
2018-11-26T02:09:33.078Z,35.20
2018-11-26T02:12:00.579Z,36.50
2018-11-26T02:14:28.042Z,36.53
2018-11-26T02:16:55.448Z,36.30
2018-11-26T02:19:22.905Z,35.50
2018-11-26T02:21:50.388Z,37.37
2018-11-26T02:24:17.822Z,37.07
2018-11-26T02:26:45.343Z,41.10
2018-11-26T02:29:12.733Z,39.53
2018-11-26T02:31:40.241Z,32.87
2018-11-26T02:34:07.699Z,37.13
2018-11-26T02:36:35.140Z,40.13
2018-11-26T02:39:02.695Z,37.87
2018-11-26T02:41:30.139Z,38.10
2018-11-26T02:43:57.552Z,36.33
2018-11-26T02:46:25.005Z,35.73
2018-11-26T02:48:52.403Z,38.80
2018-11-26T02:51:19.822Z,33.57
2018-11-26T02:53:47.312Z,33.70
2018-11-26T02:56:14.824Z,31.47
2018-11-26T02:58:42.236Z,29.57
2018-11-26T03:01:09.648Z,31.47
2018-11-26T03:03:37.127Z,33.03
2018-11-26T03:06:04.844Z,32.23
2018-11-26T03:08:32.300Z,35.87
2018-11-26T03:10:59.759Z,34.93
2018-11-26T03:13:27.201Z,31.60
2018-11-26T03:15:54.650Z,32.47
2018-11-26T03:18:22.362Z,32.67
2018-11-26T03:20:49.806Z,30.20
2018-11-26T03:23:17.291Z,27.93
2018-11-26T03:25:44.792Z,26.60
2018-11-26T03:28:12.199Z,27.47
2018-11-26T03:30:39.674Z,29.53
2018-11-26T03:33:07.157Z,32.63
2018-11-26T03:35:34.584Z,27.20
2018-11-26T03:38:02.041Z,30.40
2018-11-26T03:40:29.571Z,27.80
2018-11-26T03:42:56.994Z,28.30
2018-11-26T03:45:24.475Z,28.47
2018-11-26T03:47:51.876Z,25.77
2018-11-26T03:50:19.303Z,25.57
2018-11-26T03:52:48.042Z,25.83
2018-11-26T03:55:15.498Z,22.23
2018-11-26T03:57:42.964Z,24.70
2018-11-26T04:00:14.670Z,24.10
2018-11-26T04:02:42.229Z,24.87
2018-11-26T04:05:10.212Z,19.77
2018-11-26T04:07:37.655Z,26.70
2018-11-26T04:10:07.689Z,22.90
2018-11-26T04:12:35.306Z,24.47
2018-11-26T04:15:02.757Z,24.80
2018-11-26T04:17:30.196Z,21.37
2018-11-26T04:19:57.595Z,22.53
2018-11-26T04:22:25.052Z,23.17
2018-11-26T04:24:52.537Z,20.43
2018-11-26T04:27:19.929Z,20.77
2018-11-26T04:29:47.375Z,18.80
2018-11-26T04:32:14.775Z,21.37
2018-11-26T04:34:42.243Z,20.80
2018-11-26T04:37:09.666Z,22.80
2018-11-26T04:39:41.189Z,21.17
2018-11-26T04:42:08.588Z,20.50
2018-11-26T04:44:36.020Z,20.70
2018-11-26T04:47:03.443Z,19.97
2018-11-26T04:49:30.855Z,19.33
2018-11-26T04:51:58.340Z,20.60
2018-11-26T04:54:25.779Z,18.80
2018-11-26T04:56:53.212Z,18.70
2018-11-26T04:59:20.617Z,17.07
2018-11-26T05:01:48.048Z,17.67
2018-11-26T05:04:15.833Z,18.80
2018-11-26T05:06:43.292Z,17.43
2018-11-26T05:09:10.685Z,15.40
2018-11-26T05:11:38.183Z,16.50
2018-11-26T05:14:05.621Z,17.70
2018-11-26T05:16:33.020Z,14.10
2018-11-26T05:19:00.478Z,17.77
2018-11-26T05:21:28.380Z,13.60
2018-11-26T05:23:55.822Z,13.53
2018-11-26T05:26:23.288Z,12.17
2018-11-26T05:28:50.691Z,13.80
2018-11-26T05:31:18.173Z,15.30
2018-11-26T05:33:45.596Z,13.40
2018-11-26T05:36:13.036Z,10.60
2018-11-26T05:38:40.440Z,9.77
2018-11-26T05:41:07.894Z,10.97
2018-11-26T05:43:35.430Z,10.40
2018-11-26T05:46:02.913Z,11.97
2018-11-26T05:48:30.303Z,10.90
2018-11-26T05:50:57.783Z,12.10
2018-11-26T05:53:25.174Z,11.27
2018-11-26T05:55:52.624Z,11.53
2018-11-26T05:58:20.028Z,9.60
2018-11-26T06:00:47.443Z,10.50
2018-11-26T06:03:14.980Z,10.80
2018-11-26T06:05:42.393Z,8.43
2018-11-26T06:08:09.854Z,11.20
2018-11-26T06:10:37.271Z,9.10
2018-11-26T06:13:05.691Z,8.13
2018-11-26T06:15:33.170Z,8.63
2018-11-26T06:18:00.630Z,10.10
2018-11-26T06:20:28.036Z,8.10
2018-11-26T06:22:55.492Z,10.23
2018-11-26T06:25:23.048Z,12.27
2018-11-26T06:27:50.509Z,10.07
2018-11-26T06:30:18.780Z,8.80
2018-11-26T06:32:46.259Z,8.90
2018-11-26T06:35:18.663Z,7.80
2018-11-26T06:37:46.171Z,6.57
2018-11-26T06:40:13.695Z,6.83
2018-11-26T06:42:41.183Z,9.50
2018-11-26T06:45:13.105Z,7.97
2018-11-26T06:47:41.062Z,6.50
2018-11-26T06:50:10.203Z,6.00
2018-11-26T06:52:37.667Z,8.07
2018-11-26T06:55:06.701Z,8.13
2018-11-26T06:57:34.216Z,6.40
2018-11-26T07:00:01.600Z,5.83
2018-11-26T07:02:29.056Z,6.47
2018-11-26T07:04:56.616Z,4.60
2018-11-26T07:07:24.079Z,5.37
2018-11-26T07:09:51.488Z,7.77
2018-11-26T07:12:18.960Z,5.73
2018-11-26T07:14:46.372Z,5.13
2018-11-26T07:17:13.813Z,5.87
2018-11-26T07:19:41.255Z,6.63
2018-11-26T07:22:08.720Z,5.23
2018-11-26T07:24:36.201Z,5.30
2018-11-26T07:27:03.914Z,5.27
2018-11-26T07:29:31.312Z,5.93
2018-11-26T07:31:58.763Z,5.03
2018-11-26T07:34:26.154Z,7.10
2018-11-26T07:36:53.625Z,5.10
2018-11-26T07:39:21.028Z,4.43
2018-11-26T07:41:48.593Z,3.13
2018-11-26T07:44:16.055Z,4.57
2018-11-26T07:46:43.520Z,4.80
2018-11-26T07:49:10.980Z,3.30
2018-11-26T07:51:38.503Z,3.23
2018-11-26T07:54:06.012Z,3.70
2018-11-26T07:56:33.421Z,4.20
2018-11-26T07:59:01.029Z,2.83
2018-11-26T08:01:28.469Z,3.00
2018-11-26T08:03:56.029Z,3.67
2018-11-26T08:06:23.428Z,4.30
2018-11-26T08:08:50.894Z,3.40
2018-11-26T08:11:18.297Z,3.20
2018-11-26T08:13:45.783Z,4.67
2018-11-26T08:16:13.206Z,3.37
2018-11-26T08:18:40.688Z,6.20
2018-11-26T08:21:08.091Z,4.13
2018-11-26T08:23:35.642Z,3.73
2018-11-26T08:26:03.048Z,4.23
2018-11-26T08:28:30.474Z,3.70
2018-11-26T08:30:57.872Z,2.43
2018-11-26T08:33:25.325Z,3.30
2018-11-26T08:35:58.468Z,4.80
2018-11-26T08:38:30.504Z,4.50
2018-11-26T08:41:03.751Z,4.67
2018-11-26T08:43:34.500Z,3.23
2018-11-26T08:46:09.067Z,2.40
2018-11-26T08:48:42.934Z,3.53
2018-11-26T08:51:10.425Z,3.40
2018-11-26T08:53:37.888Z,3.20
2018-11-26T08:56:05.829Z,4.20
2018-11-26T08:58:33.291Z,5.37
2018-11-26T09:01:10.424Z,4.27
2018-11-26T09:03:43.547Z,3.17
2018-11-26T09:06:10.932Z,2.53
2018-11-26T09:08:38.495Z,3.73
2018-11-26T09:11:07.793Z,6.17
2018-11-26T09:13:35.301Z,2.43
2018-11-26T09:16:02.729Z,4.17
2018-11-26T09:18:30.247Z,3.07
2018-11-26T09:20:57.636Z,2.50
2018-11-26T09:23:25.144Z,2.40
2018-11-26T09:25:53.129Z,2.10
2018-11-26T09:28:20.608Z,2.80
2018-11-26T09:30:48.043Z,3.83
2018-11-26T09:33:15.518Z,2.27
2018-11-26T09:35:43.036Z,2.10
2018-11-26T09:38:10.465Z,3.33
2018-11-26T09:40:37.987Z,2.40
2018-11-26T09:43:06.352Z,1.63
2018-11-26T09:45:40.062Z,2.90
2018-11-26T09:48:01.786Z,2.63
2018-11-26T09:50:29.256Z,3.43
2018-11-26T09:52:56.666Z,2.30
2018-11-26T09:55:24.108Z,2.90
2018-11-26T09:57:51.908Z,2.43
2018-11-26T10:00:19.980Z,1.83
2018-11-26T10:02:48.516Z,2.03
2018-11-26T10:05:17.108Z,2.63
2018-11-26T10:07:44.535Z,1.50
2018-11-26T10:10:12.419Z,2.90
2018-11-26T10:12:40.546Z,1.70
2018-11-26T10:15:11.152Z,2.37
2018-11-26T10:17:38.564Z,3.20
2018-11-26T10:20:07.471Z,1.50
2018-11-26T10:22:34.905Z,3.23
2018-11-26T10:25:05.924Z,1.70
2018-11-26T10:27:29.911Z,4.00
2018-11-26T10:29:57.350Z,2.67
2018-11-26T10:32:24.733Z,6.10
2018-11-26T10:34:52.187Z,2.93
2018-11-26T10:37:19.605Z,2.60
2018-11-26T10:39:47.046Z,4.30
2018-11-26T10:42:14.457Z,5.37
2018-11-26T10:44:41.949Z,2.10
2018-11-26T10:47:09.345Z,1.73
2018-11-26T10:49:36.862Z,1.73
2018-11-26T10:52:04.470Z,1.50
2018-11-26T10:54:31.919Z,2.20
2018-11-26T10:56:59.422Z,2.00
2018-11-26T10:59:26.887Z,2.33
2018-11-26T11:02:00.084Z,2.50
2018-11-26T11:04:27.617Z,1.90
2018-11-26T11:06:55.826Z,2.20
2018-11-26T11:09:22.535Z,2.00
2018-11-26T11:11:49.936Z,3.73
2018-11-26T11:14:17.722Z,2.03
2018-11-26T11:16:45.160Z,1.77
2018-11-26T11:19:12.560Z,2.93
2018-11-26T11:21:40.010Z,1.80
2018-11-26T11:24:07.449Z,2.70
2018-11-26T11:26:34.890Z,2.20
2018-11-26T11:29:02.345Z,2.30
2018-11-26T11:31:29.873Z,3.23
2018-11-26T11:33:57.299Z,2.20
2018-11-26T11:36:24.817Z,2.67
2018-11-26T11:38:52.274Z,2.83
2018-11-26T11:41:19.748Z,2.30
2018-11-26T11:43:47.235Z,1.87
2018-11-26T11:46:14.784Z,2.17
2018-11-26T11:48:42.205Z,1.80
2018-11-26T11:51:09.656Z,2.70
2018-11-26T11:53:37.070Z,3.10
2018-11-26T11:56:04.625Z,1.90
2018-11-26T11:58:32.028Z,2.20
2018-11-26T12:00:59.538Z,2.50
2018-11-26T12:03:26.973Z,1.83
2018-11-26T12:05:54.532Z,1.97
2018-11-26T12:08:21.932Z,2.93
2018-11-26T12:10:49.388Z,2.57
2018-11-26T12:13:16.828Z,2.40
2018-11-26T12:15:46.737Z,2.47
2018-11-26T12:18:14.169Z,2.00
2018-11-26T12:20:41.647Z,2.50
2018-11-26T12:23:09.113Z,4.37
2018-11-26T12:25:36.590Z,2.73
2018-11-26T12:28:04.033Z,3.23
2018-11-26T12:30:33.266Z,4.70
2018-11-26T12:33:00.702Z,3.50
2018-11-26T12:35:28.183Z,3.70
2018-11-26T12:37:55.594Z,3.10
2018-11-26T12:40:24.082Z,3.00
2018-11-26T12:42:52.721Z,3.33
2018-11-26T12:45:26.550Z,3.40
2018-11-26T12:47:53.979Z,3.90
2018-11-26T12:50:21.488Z,2.90
2018-11-26T12:52:48.910Z,3.20
2018-11-26T12:55:17.395Z,3.87
2018-11-26T12:57:45.769Z,3.67
2018-11-26T13:00:19.610Z,3.50
2018-11-26T13:02:48.342Z,3.83
2018-11-26T13:05:16.962Z,2.80
2018-11-26T13:07:44.385Z,3.47
2018-11-26T13:10:12.990Z,3.50
2018-11-26T13:12:40.496Z,5.70
2018-11-26T13:15:12.745Z,3.30
2018-11-26T13:17:49.650Z,3.50
2018-11-26T13:20:20.822Z,3.47
2018-11-26T13:22:49.009Z,3.60
2018-11-26T13:25:19.108Z,4.13
2018-11-26T13:27:51.190Z,3.83
2018-11-26T13:30:22.915Z,3.80
2018-11-26T13:32:52.271Z,3.40
2018-11-26T13:35:20.296Z,3.63
2018-11-26T13:37:48.567Z,3.43
2018-11-26T13:40:16.750Z,4.83
2018-11-26T13:42:44.385Z,3.90
2018-11-26T13:45:13.026Z,4.33
2018-11-26T13:47:40.713Z,4.10
2018-11-26T13:50:09.976Z,4.83
2018-11-26T13:52:37.382Z,4.83
2018-11-26T13:55:07.112Z,4.07
2018-11-26T13:57:34.555Z,4.23
2018-11-26T14:00:02.009Z,5.43
2018-11-26T14:02:29.498Z,4.50
2018-11-26T14:04:56.958Z,5.37
2018-11-26T14:07:24.356Z,6.10
2018-11-26T14:09:51.794Z,5.27
2018-11-26T14:12:19.250Z,5.20
2018-11-26T14:14:51.580Z,4.93
2018-11-26T14:17:14.154Z,5.67
2018-11-26T14:19:41.549Z,5.80
2018-11-26T14:22:09.042Z,5.97
2018-11-26T14:24:36.486Z,6.27
2018-11-26T14:27:04.045Z,5.50
2018-11-26T14:29:31.469Z,5.93
2018-11-26T14:31:58.992Z,5.40
2018-11-26T14:34:26.389Z,5.50
2018-11-26T14:36:53.869Z,6.47
2018-11-26T14:39:21.281Z,5.40
2018-11-26T14:41:48.736Z,7.80
2018-11-26T14:44:16.242Z,5.70
2018-11-26T14:46:43.648Z,6.63
2018-11-26T14:49:11.115Z,6.13
2018-11-26T14:51:38.540Z,6.20
2018-11-26T14:54:06.153Z,6.30
2018-11-26T14:56:33.552Z,7.13
2018-11-26T14:59:01.010Z,6.33
2018-11-26T15:01:28.469Z,6.97
2018-11-26T15:03:55.872Z,6.37
2018-11-26T15:06:23.287Z,8.63
2018-11-26T15:08:50.738Z,7.10
2018-11-26T15:11:18.306Z,7.40
2018-11-26T15:13:45.793Z,6.93
2018-11-26T15:16:13.245Z,8.50
2018-11-26T15:18:40.685Z,7.63
2018-11-26T15:21:08.139Z,8.00
2018-11-26T15:23:35.590Z,7.10
2018-11-26T15:26:03.099Z,6.00
2018-11-26T15:28:30.510Z,6.80
2018-11-26T15:30:57.983Z,7.93
2018-11-26T15:33:25.406Z,8.10
2018-11-26T15:35:52.869Z,9.57
2018-11-26T15:38:20.315Z,7.13
2018-11-26T15:40:47.715Z,8.77
2018-11-26T15:43:15.155Z,7.50
2018-11-26T15:45:43.310Z,7.17
2018-11-26T15:48:11.720Z,7.37
2018-11-26T15:50:39.354Z,6.40
2018-11-26T15:53:07.703Z,7.87
2018-11-26T15:55:35.290Z,6.93
2018-11-26T15:58:02.741Z,6.10
2018-11-26T16:00:30.465Z,6.40
2018-11-26T16:02:57.942Z,5.73
2018-11-26T16:05:26.602Z,5.33
2018-11-26T16:07:55.355Z,6.23
2018-11-26T16:10:22.845Z,5.20
2018-11-26T16:12:54.684Z,5.00
2018-11-26T16:15:24.707Z,5.40
2018-11-26T16:17:52.824Z,5.30
2018-11-26T16:20:22.241Z,4.53
2018-11-26T16:22:49.693Z,5.10
2018-11-26T16:25:19.673Z,5.20
2018-11-26T16:27:47.080Z,6.30
2018-11-26T16:30:15.566Z,5.60
2018-11-26T16:32:44.278Z,6.13
2018-11-26T16:35:14.189Z,5.27
2018-11-26T16:37:41.691Z,6.00
2018-11-26T16:40:11.562Z,5.60
2018-11-26T16:42:39.186Z,7.20
2018-11-26T16:45:09.185Z,5.77
2018-11-26T16:47:36.640Z,5.37
2018-11-26T16:50:05.271Z,5.60
2018-11-26T16:52:33.332Z,7.93
2018-11-26T16:55:00.895Z,5.37
2018-11-26T16:57:28.389Z,7.23
2018-11-26T16:59:55.878Z,5.73
2018-11-26T17:02:23.272Z,5.93
2018-11-26T17:04:50.778Z,4.83
2018-11-26T17:07:18.194Z,5.10
2018-11-26T17:09:45.655Z,5.63
2018-11-26T17:12:13.202Z,5.60
2018-11-26T17:14:40.794Z,5.87
2018-11-26T17:17:08.243Z,5.40
2018-11-26T17:19:35.812Z,5.80
2018-11-26T17:22:03.249Z,6.00
2018-11-26T17:24:30.754Z,7.70
2018-11-26T17:26:58.256Z,5.07
2018-11-26T17:29:25.707Z,5.20
2018-11-26T17:31:53.242Z,4.80
2018-11-26T17:34:20.718Z,4.83
2018-11-26T17:36:48.161Z,5.13
2018-11-26T17:39:15.689Z,6.53
2018-11-26T17:41:43.161Z,6.77
2018-11-26T17:44:10.588Z,4.43
2018-11-26T17:46:38.032Z,4.90
2018-11-26T17:49:05.834Z,6.60
2018-11-26T17:51:33.391Z,4.83
2018-11-26T17:54:00.887Z,4.97
2018-11-26T17:56:28.383Z,6.77
2018-11-26T17:58:55.813Z,5.73
2018-11-26T18:01:27.392Z,7.77
2018-11-26T18:03:54.858Z,6.47
2018-11-26T18:06:22.286Z,3.90
2018-11-26T18:08:49.772Z,4.10
2018-11-26T18:11:17.172Z,5.17
2018-11-26T18:13:44.734Z,4.53
2018-11-26T18:16:12.291Z,4.67
2018-11-26T18:18:39.699Z,4.40
2018-11-26T18:21:07.215Z,4.70
2018-11-26T18:23:34.664Z,4.83
2018-11-26T18:26:02.114Z,4.80
2018-11-26T18:28:29.501Z,5.30
2018-11-26T18:30:56.961Z,5.93
2018-11-26T18:33:24.412Z,5.90
2018-11-26T18:35:52.046Z,5.27
2018-11-26T18:38:22.344Z,4.73
2018-11-26T18:40:50.624Z,5.17
2018-11-26T18:43:18.128Z,5.30
2018-11-26T18:45:45.613Z,5.00
2018-11-26T18:48:14.145Z,6.20
2018-11-26T18:50:41.616Z,4.70
2018-11-26T18:53:09.081Z,4.83
2018-11-26T18:55:37.646Z,6.10
2018-11-26T18:58:05.480Z,5.03
2018-11-26T19:00:35.919Z,5.93
2018-11-26T19:03:03.460Z,6.03
2018-11-26T19:05:30.963Z,5.37
2018-11-26T19:07:58.464Z,5.27
2018-11-26T19:10:28.436Z,6.10
2018-11-26T19:13:00.751Z,5.00
2018-11-26T19:15:30.995Z,7.60
2018-11-26T19:18:01.917Z,4.80
2018-11-26T19:20:29.373Z,6.87
2018-11-26T19:22:56.775Z,5.87
2018-11-26T19:25:24.229Z,6.43
2018-11-26T19:27:51.786Z,5.93
2018-11-26T19:30:22.955Z,5.03
2018-11-26T19:32:46.817Z,4.90
2018-11-26T19:35:14.902Z,5.20
2018-11-26T19:37:42.426Z,5.00
2018-11-26T19:40:15.016Z,5.03
2018-11-26T19:42:43.518Z,5.10
2018-11-26T19:45:15.892Z,6.03
2018-11-26T19:47:43.450Z,5.50
2018-11-26T19:50:14.184Z,7.27
2018-11-26T19:52:41.872Z,6.67
2018-11-26T19:55:17.270Z,6.93
2018-11-26T19:57:44.742Z,6.20
2018-11-26T20:00:21.781Z,6.50
2018-11-26T20:02:58.092Z,5.07
2018-11-26T20:05:30.895Z,6.60
2018-11-26T20:07:58.364Z,7.10
2018-11-26T20:10:25.945Z,6.13
2018-11-26T20:12:53.398Z,6.70
2018-11-26T20:15:20.900Z,6.93
2018-11-26T20:17:48.296Z,8.40
2018-11-26T20:20:15.799Z,8.03
2018-11-26T20:22:43.233Z,7.30
2018-11-26T20:25:12.900Z,6.90
2018-11-26T20:27:41.270Z,8.40
2018-11-26T20:30:10.540Z,6.10
2018-11-26T20:32:39.125Z,6.60
2018-11-26T20:35:08.222Z,9.00
2018-11-26T20:37:35.781Z,7.07
2018-11-26T20:40:05.650Z,7.20
2018-11-26T20:42:33.100Z,6.67
2018-11-26T20:45:00.530Z,8.40
2018-11-26T20:47:27.984Z,6.40
2018-11-26T20:49:55.437Z,6.53
2018-11-26T20:52:23.894Z,5.90
2018-11-26T20:54:51.398Z,6.67
2018-11-26T20:57:18.871Z,6.50
2018-11-26T20:59:46.392Z,7.13
2018-11-26T21:02:13.881Z,6.80
2018-11-26T21:04:41.347Z,7.63
2018-11-26T21:07:08.795Z,6.10
2018-11-26T21:09:36.229Z,6.77
2018-11-26T21:12:03.739Z,7.07
2018-11-26T21:14:31.146Z,6.00
2018-11-26T21:16:58.761Z,6.30
2018-11-26T21:19:26.238Z,7.30
2018-11-26T21:21:53.716Z,6.53
2018-11-26T21:24:21.429Z,6.20
2018-11-26T21:26:48.864Z,6.03
2018-11-26T21:29:16.297Z,6.97
2018-11-26T21:31:43.722Z,6.72
2018-11-26T21:34:11.185Z,7.00
2018-11-26T21:36:38.636Z,6.23
2018-11-26T21:39:08.865Z,6.47
2018-11-26T21:41:36.400Z,6.23
2018-11-26T21:44:03.982Z,6.13
2018-11-26T21:46:31.396Z,5.57
2018-11-26T21:48:58.862Z,5.97
2018-11-26T21:51:26.282Z,5.37
2018-11-26T21:53:53.691Z,5.80
2018-11-26T21:56:21.128Z,6.20
2018-11-26T21:58:48.522Z,5.03
2018-11-26T22:01:15.977Z,6.00
2018-11-26T22:03:43.405Z,5.17
2018-11-26T22:06:10.862Z,5.67
2018-11-26T22:08:38.292Z,4.87
2018-11-26T22:11:05.801Z,4.07
2018-11-26T22:13:33.347Z,4.33
2018-11-26T22:16:00.771Z,5.77
2018-11-26T22:18:28.286Z,6.00
2018-11-26T22:20:55.687Z,6.60
2018-11-26T22:23:23.111Z,4.53
2018-11-26T22:25:50.574Z,5.90
2018-11-26T22:28:18.066Z,4.47
2018-11-26T22:30:45.555Z,4.37
2018-11-26T22:33:13.024Z,4.70
2018-11-26T22:35:40.591Z,4.27
2018-11-26T22:38:08.048Z,4.40
2018-11-26T22:40:35.549Z,4.93
2018-11-26T22:43:03.090Z,4.17
2018-11-26T22:45:31.743Z,6.93
2018-11-26T22:48:10.397Z,3.73
2018-11-26T22:50:41.867Z,4.73
2018-11-26T22:53:09.469Z,3.83
2018-11-26T22:55:36.956Z,3.10
2018-11-26T22:58:05.994Z,3.80
2018-11-26T23:00:41.490Z,3.80
2018-11-26T23:03:09.868Z,3.87
2018-11-26T23:05:37.322Z,3.07
2018-11-26T23:08:05.354Z,5.10
2018-11-26T23:10:32.799Z,3.47
2018-11-26T23:13:00.270Z,5.60
2018-11-26T23:15:27.703Z,2.90
2018-11-26T23:17:55.129Z,2.90
2018-11-26T23:20:22.635Z,4.87
2018-11-26T23:22:50.053Z,3.17
2018-11-26T23:25:18.573Z,3.07
2018-11-26T23:27:46.051Z,3.57
2018-11-26T23:30:16.696Z,3.03
2018-11-26T23:32:45.119Z,3.37
2018-11-26T23:35:12.625Z,4.30
2018-11-26T23:37:40.093Z,3.23
2018-11-26T23:40:08.986Z,3.97
2018-11-26T23:42:36.430Z,3.73
2018-11-26T23:45:05.929Z,3.80
2018-11-26T23:47:33.398Z,4.10
2018-11-26T23:50:00.799Z,3.60
2018-11-26T23:52:28.398Z,4.50
2018-11-26T23:54:55.904Z,4.27
2018-11-26T23:57:23.402Z,3.53
2018-11-26T23:59:50.862Z,5.07
